createdAt,value
2023-01-22T02:10:36.756Z,101341.63
2023-01-22T02:11:39.882Z,101342.50
2023-01-22T02:12:44.487Z,101343.38
2023-01-22T02:13:53.054Z,101341.63
2023-01-22T02:14:55.265Z,101341.63
2023-01-22T02:15:57.206Z,101339.88
2023-01-22T02:17:02.261Z,101350.33
2023-01-22T02:18:05.003Z,101346.86
2023-01-22T02:19:08.166Z,101350.33
2023-01-22T02:20:11.931Z,101345.13
2023-01-22T02:21:35.744Z,101349.48
2023-01-22T02:22:38.747Z,101349.48
2023-01-22T02:23:40.763Z,101349.48
2023-01-22T02:24:43.344Z,101359.05
2023-01-22T02:25:45.521Z,101353.82
2023-01-22T02:26:47.711Z,101352.97
2023-01-22T02:27:49.687Z,101357.33
2023-01-22T02:28:51.811Z,101359.04
2023-01-22T02:29:54.121Z,101355.58
2023-01-22T02:30:56.333Z,101356.43
2023-01-22T02:31:58.542Z,101356.43
2023-01-22T02:33:00.403Z,101361.65
2023-01-22T02:34:02.811Z,101359.91
2023-01-22T02:35:05.710Z,101358.20
2023-01-22T02:36:08.169Z,101357.30
2023-01-22T02:37:10.673Z,101354.70
2023-01-22T02:38:12.553Z,101358.19
2023-01-22T02:39:14.425Z,101360.80
2023-01-22T02:40:17.432Z,101352.08
2023-01-22T02:41:19.739Z,101359.92
2023-01-22T02:42:21.763Z,101369.50
2023-01-22T02:43:25.569Z,101366.03
2023-01-22T02:44:27.600Z,101362.53
2023-01-22T02:45:29.522Z,101366.89
2023-01-22T02:46:31.695Z,101363.42
2023-01-22T02:47:35.443Z,101369.50
2023-01-22T02:48:37.714Z,101366.89
2023-01-22T02:49:39.623Z,101374.72
2023-01-22T02:50:41.766Z,101382.56
2023-01-22T02:51:43.643Z,101378.20
2023-01-22T02:52:45.498Z,101371.26
2023-01-22T02:53:47.357Z,101366.03
2023-01-22T02:54:49.340Z,101375.59
2023-01-22T02:55:51.313Z,101372.98
2023-01-22T02:56:53.796Z,101378.20
2023-01-22T02:57:55.796Z,101368.62
2023-01-22T02:59:00.416Z,101372.98
2023-01-22T03:00:02.976Z,101379.06
2023-01-22T03:01:13.779Z,101371.23
2023-01-22T03:02:15.913Z,101374.73
2023-01-22T03:03:17.862Z,101372.13
2023-01-22T03:04:19.737Z,101374.73
2023-01-22T03:05:22.154Z,101382.58
2023-01-22T03:06:26.963Z,101379.97
2023-01-22T03:07:30.786Z,101379.08
2023-01-22T03:08:32.680Z,101377.36
2023-01-22T03:09:34.578Z,101382.55
2023-01-22T03:10:36.555Z,101381.69
2023-01-22T03:11:40.626Z,101374.71
2023-01-22T03:12:45.568Z,101383.44
2023-01-22T03:13:47.511Z,101377.33
2023-01-22T03:14:49.625Z,101382.55
2023-01-22T03:15:51.497Z,101389.53
2023-01-22T03:16:54.096Z,101386.92
2023-01-22T03:17:55.977Z,101389.53
2023-01-22T03:18:57.953Z,101386.92
2023-01-22T03:19:59.851Z,101388.64
2023-01-22T03:21:03.742Z,101387.78
2023-01-22T03:22:08.726Z,101392.14
2023-01-22T03:23:10.649Z,101383.41
2023-01-22T03:24:12.572Z,101385.17
2023-01-22T03:25:14.698Z,101386.03
2023-01-22T03:26:17.784Z,101386.92
2023-01-22T03:27:22.116Z,101391.25
2023-01-22T03:28:24.016Z,101390.39
2023-01-22T03:29:25.906Z,101393.01
2023-01-22T03:30:28.193Z,101391.26
2023-01-22T03:31:30.278Z,101397.34
2023-01-22T03:32:32.651Z,101392.11
2023-01-22T03:33:35.152Z,101396.48
2023-01-22T03:34:39.235Z,101388.64
2023-01-22T03:35:41.155Z,101403.46
2023-01-22T03:36:43.546Z,101405.18
2023-01-22T03:37:45.459Z,101393.02
2023-01-22T03:38:47.346Z,101397.34
2023-01-22T03:39:49.243Z,101399.95
2023-01-22T03:40:51.231Z,101399.09
2023-01-22T03:41:53.641Z,101406.08
2023-01-22T03:42:55.539Z,101392.11
2023-01-22T03:43:59.240Z,101395.62
2023-01-22T03:45:01.173Z,101404.31
2023-01-22T03:46:08.744Z,101414.77
2023-01-22T03:47:10.804Z,101411.30
2023-01-22T03:48:12.708Z,101418.25
2023-01-22T03:49:15.278Z,101419.14
2023-01-22T03:50:18.931Z,101421.72
2023-01-22T03:51:22.448Z,101420.86
2023-01-22T03:52:24.491Z,101413.91
2023-01-22T03:53:27.581Z,101409.55
2023-01-22T03:54:29.463Z,101415.63
2023-01-22T03:55:31.368Z,101413.02
2023-01-22T03:56:33.693Z,101410.41
2023-01-22T03:57:36.001Z,101416.53
2023-01-22T03:58:38.011Z,101420.00
2023-01-22T03:59:39.973Z,101420.86
2023-01-22T04:00:42.389Z,101424.34
2023-01-22T04:01:44.456Z,101420.86
2023-01-22T04:02:46.569Z,101416.53
2023-01-22T04:03:48.834Z,101423.47
2023-01-22T04:04:50.833Z,101422.61
2023-01-22T04:05:53.625Z,101424.37
2023-01-22T04:06:55.615Z,101414.77
2023-01-22T04:07:57.543Z,101417.39
2023-01-22T04:08:59.426Z,101420.00
2023-01-22T04:10:01.303Z,101420.00
2023-01-22T04:11:04.415Z,101419.14
2023-01-22T04:12:07.213Z,101427.84
2023-01-22T04:13:09.100Z,101425.23
2023-01-22T04:14:10.972Z,101427.84
2023-01-22T04:15:12.859Z,101426.09
2023-01-22T04:16:15.669Z,101433.92
2023-01-22T04:17:17.787Z,101430.45
2023-01-22T04:18:22.408Z,101432.20
2023-01-22T04:19:24.354Z,101428.70
2023-01-22T04:20:26.658Z,101431.31
2023-01-22T04:21:28.656Z,101433.92
2023-01-22T04:22:30.534Z,101440.05
2023-01-22T04:23:32.870Z,101431.31
2023-01-22T04:24:34.756Z,101440.91
2023-01-22T04:25:36.968Z,101438.30
2023-01-22T04:26:39.051Z,101441.77
2023-01-22T04:27:41.150Z,101447.00
2023-01-22T04:28:43.024Z,101448.75
2023-01-22T04:29:44.923Z,101449.61
2023-01-22T04:30:50.119Z,101451.36
2023-01-22T04:31:52.113Z,101454.84
2023-01-22T04:32:53.977Z,101447.86
2023-01-22T04:33:55.978Z,101451.37
2023-01-22T04:34:57.975Z,101458.31
2023-01-22T04:35:59.859Z,101462.69
2023-01-22T04:37:01.929Z,101463.54
2023-01-22T04:38:06.179Z,101467.91
2023-01-22T04:39:08.079Z,101455.70
2023-01-22T04:40:11.730Z,101474.00
2023-01-22T04:41:13.647Z,101464.44
2023-01-22T04:42:15.518Z,101462.68
2023-01-22T04:43:17.554Z,101464.44
2023-01-22T04:44:19.415Z,101460.95
2023-01-22T04:45:21.296Z,101463.54
2023-01-22T04:46:23.348Z,101468.77
2023-01-22T04:47:26.309Z,101464.44
2023-01-22T04:48:29.718Z,101465.30
2023-01-22T04:49:32.295Z,101472.27
2023-01-22T04:50:34.371Z,101466.16
2023-01-22T04:51:36.304Z,101470.52
2023-01-22T04:52:38.173Z,101464.44
2023-01-22T04:53:40.154Z,101460.06
2023-01-22T04:54:42.147Z,101466.18
2023-01-22T04:55:45.223Z,101477.48
2023-01-22T04:56:47.227Z,101474.02
2023-01-22T04:57:49.092Z,101473.13
2023-01-22T04:58:50.952Z,101474.88
2023-01-22T04:59:52.912Z,101474.88
2023-01-22T05:00:57.123Z,101481.86
2023-01-22T05:01:59.344Z,101475.74
2023-01-22T05:03:05.632Z,101476.63
2023-01-22T05:04:07.561Z,101474.88
2023-01-22T05:05:10.624Z,101479.25
2023-01-22T05:06:13.065Z,101487.95
2023-01-22T05:07:15.045Z,101480.10
2023-01-22T05:08:16.915Z,101481.86
2023-01-22T05:09:19.109Z,101488.80
2023-01-22T05:10:21.731Z,101482.72
2023-01-22T05:11:23.777Z,101482.72
2023-01-22T05:12:26.084Z,101487.09
2023-01-22T05:13:29.026Z,101496.64
2023-01-22T05:14:31.105Z,101498.41
2023-01-22T05:15:33.925Z,101490.56
2023-01-22T05:16:37.106Z,101487.95
2023-01-22T05:17:39.237Z,101497.55
2023-01-22T05:18:41.171Z,101494.03
2023-01-22T05:19:43.122Z,101497.53
2023-01-22T05:20:46.101Z,101501.87
2023-01-22T05:21:48.185Z,101505.38
2023-01-22T05:22:51.230Z,101501.87
2023-01-22T05:23:53.272Z,101501.87
2023-01-22T05:24:55.346Z,101493.17
2023-01-22T05:25:57.341Z,101502.77
2023-01-22T05:26:59.932Z,101507.98
2023-01-22T05:28:02.082Z,101501.87
2023-01-22T05:29:04.059Z,101502.77
2023-01-22T05:30:07.817Z,101506.25
2023-01-22T05:31:10.257Z,101504.48
2023-01-22T05:32:12.804Z,101499.27
2023-01-22T05:33:14.719Z,101506.25
2023-01-22T05:34:16.897Z,101508.00
2023-01-22T05:35:18.864Z,101512.34
2023-01-22T05:36:20.946Z,101513.20
2023-01-22T05:37:23.369Z,101506.24
2023-01-22T05:38:27.452Z,101517.55
2023-01-22T05:39:29.779Z,101513.21
2023-01-22T05:40:32.277Z,101518.45
2023-01-22T05:41:34.981Z,101512.33
2023-01-22T05:42:37.686Z,101518.44
2023-01-22T05:43:40.232Z,101517.55
2023-01-22T05:44:42.803Z,101520.16
2023-01-22T05:45:45.630Z,101516.69
2023-01-22T05:46:48.817Z,101522.78
2023-01-22T05:47:53.303Z,101515.83
2023-01-22T05:48:56.676Z,101524.53
2023-01-22T05:49:58.841Z,101528.89
2023-01-22T05:51:06.356Z,101527.14
2023-01-22T05:52:09.458Z,101525.41
2023-01-22T05:53:11.752Z,101523.66
2023-01-22T05:54:14.247Z,101532.34
2023-01-22T05:55:16.297Z,101534.97
2023-01-22T05:56:18.404Z,101530.64
2023-01-22T05:57:20.734Z,101534.09
2023-01-22T05:58:22.678Z,101528.02
2023-01-22T05:59:24.986Z,101536.72
2023-01-22T06:00:28.669Z,101533.25
2023-01-22T06:01:30.903Z,101541.08
2023-01-22T06:02:33.163Z,101541.08
2023-01-22T06:03:36.963Z,101542.79
2023-01-22T06:04:39.183Z,101544.56
2023-01-22T06:05:42.004Z,101545.42
2023-01-22T06:06:43.994Z,101539.33
2023-01-22T06:07:46.125Z,101545.42
2023-01-22T06:08:48.914Z,101544.56
2023-01-22T06:09:50.844Z,101544.55
2023-01-22T06:11:05.400Z,101548.02
2023-01-22T06:12:08.458Z,101547.12
2023-01-22T06:13:10.485Z,101550.62
2023-01-22T06:14:12.364Z,101542.78
2023-01-22T06:15:14.410Z,101553.25
2023-01-22T06:16:16.840Z,101548.87
2023-01-22T06:17:19.481Z,101549.72
2023-01-22T06:18:22.792Z,101553.22
2023-01-22T06:19:24.877Z,101558.45
2023-01-22T06:20:26.859Z,101558.45
2023-01-22T06:21:29.046Z,101568.00
2023-01-22T06:22:31.381Z,101567.16
2023-01-22T06:23:34.061Z,101562.78
2023-01-22T06:24:36.726Z,101568.02
2023-01-22T06:25:38.976Z,101568.02
2023-01-22T06:26:41.034Z,101565.39
2023-01-22T06:27:43.013Z,101573.23
2023-01-22T06:28:44.895Z,101572.35
2023-01-22T06:29:46.783Z,101580.17
2023-01-22T06:30:49.274Z,101576.73
2023-01-22T06:31:51.552Z,101578.46
2023-01-22T06:32:54.110Z,101580.19
2023-01-22T06:33:56.338Z,101568.02
2023-01-22T06:34:58.442Z,101581.07
2023-01-22T06:36:01.199Z,101576.72
2023-01-22T06:37:03.399Z,101579.32
2023-01-22T06:38:05.381Z,101579.32
2023-01-22T06:39:08.644Z,101582.79
2023-01-22T06:40:12.686Z,101583.70
2023-01-22T06:41:14.789Z,101583.70
2023-01-22T06:42:16.689Z,101595.89
2023-01-22T06:43:18.712Z,101593.25
2023-01-22T06:44:20.716Z,101595.86
2023-01-22T06:45:23.636Z,101595.00
2023-01-22T06:46:26.453Z,101601.11
2023-01-22T06:47:28.421Z,101600.23
2023-01-22T06:48:30.673Z,101602.82
2023-01-22T06:49:32.591Z,101608.94
2023-01-22T06:50:34.799Z,101608.08
2023-01-22T06:51:36.673Z,101605.45
2023-01-22T06:52:38.567Z,101612.43
2023-01-22T06:53:40.784Z,101612.41
2023-01-22T06:54:42.800Z,101609.80
2023-01-22T06:55:44.684Z,101615.04
2023-01-22T06:56:46.646Z,101620.25
2023-01-22T06:57:48.534Z,101620.26
2023-01-22T06:58:51.407Z,101626.37
2023-01-22T06:59:54.171Z,101620.26
2023-01-22T07:01:01.868Z,101622.86
2023-01-22T07:02:04.572Z,101622.88
2023-01-22T07:03:07.768Z,101611.55
2023-01-22T07:04:09.765Z,101619.41
2023-01-22T07:05:12.112Z,101619.41
2023-01-22T07:06:15.412Z,101628.12
2023-01-22T07:07:17.276Z,101620.27
2023-01-22T07:08:19.166Z,101619.39
2023-01-22T07:09:22.363Z,101622.02
2023-01-22T07:10:24.343Z,101626.39
2023-01-22T07:11:26.517Z,101634.22
2023-01-22T07:12:28.586Z,101625.48
2023-01-22T07:13:30.491Z,101630.70
2023-01-22T07:14:37.399Z,101627.22
2023-01-22T07:15:36.444Z,101623.75
2023-01-22T07:16:38.525Z,101620.26
2023-01-22T07:17:40.422Z,101622.00
2023-01-22T07:18:42.286Z,101629.84
2023-01-22T07:19:44.149Z,101629.00
2023-01-22T07:20:46.366Z,101627.24
2023-01-22T07:21:48.896Z,101621.15
2023-01-22T07:22:51.795Z,101627.21
2023-01-22T07:23:54.130Z,101623.75
2023-01-22T07:24:56.571Z,101629.84
2023-01-22T07:25:58.494Z,101625.47
2023-01-22T07:27:01.965Z,101629.84
2023-01-22T07:29:02.359Z,101624.69
2023-01-22T07:30:06.888Z,101629.01
2023-01-22T07:31:10.514Z,101623.77
2023-01-22T07:32:12.593Z,101628.09
2023-01-22T07:33:14.990Z,101632.44
2023-01-22T07:34:16.870Z,101622.87
2023-01-22T07:35:19.714Z,101631.59
2023-01-22T07:36:22.508Z,101628.08
2023-01-22T07:37:24.385Z,101627.24
2023-01-22T07:38:27.476Z,101630.70
2023-01-22T07:39:29.756Z,101636.81
2023-01-22T07:40:32.534Z,101634.20
2023-01-22T07:41:34.454Z,101629.81
2023-01-22T07:42:38.750Z,101633.31
2023-01-22T07:43:41.848Z,101627.20
2023-01-22T07:44:43.775Z,101635.92
2023-01-22T10:02:40.897Z,101717.44
2023-01-22T10:03:49.523Z,101725.20
2023-01-22T10:04:55.350Z,101721.73
2023-01-22T10:07:15.624Z,101713.17
2023-01-22T10:08:36.297Z,101720.91
2023-01-22T10:09:40.206Z,101720.05
2023-01-22T10:10:42.754Z,101715.70
2023-01-22T10:11:54.104Z,101720.95
2023-01-22T10:13:17.585Z,101708.78
2023-01-22T10:14:22.647Z,101717.50
2023-01-22T10:15:26.231Z,101712.33
2023-01-22T10:16:28.582Z,101707.95
2023-01-22T10:17:34.565Z,101698.37
2023-01-22T10:18:43.314Z,101700.14
2023-01-22T10:19:49.175Z,101705.38
2023-01-22T10:20:55.182Z,101703.64
2023-01-22T10:22:06.722Z,101700.18
2023-01-22T10:23:10.397Z,101712.36
2023-01-22T10:24:12.909Z,101706.24
2023-01-22T10:25:16.309Z,101701.91
2023-01-22T10:26:34.940Z,101708.02
2023-01-22T10:27:39.083Z,101700.17
2023-01-22T10:28:49.912Z,101694.05
2023-01-22T10:30:04.367Z,101701.00
2023-01-22T10:31:29.575Z,101704.56
2023-01-22T10:32:32.111Z,101701.04
2023-01-22T10:33:36.752Z,101699.34
2023-01-22T10:34:42.229Z,101698.42
2023-01-22T10:35:49.887Z,101711.52
2023-01-22T10:36:54.431Z,101703.69
2023-01-22T10:37:57.235Z,101701.96
2023-01-22T10:39:14.513Z,101704.58
2023-01-22T10:40:23.285Z,101698.47
2023-01-22T10:41:31.886Z,101703.72
2023-01-22T10:42:34.246Z,101702.88
2023-01-22T10:43:39.530Z,101703.73
2023-01-22T10:44:42.116Z,101707.22
2023-01-22T10:45:55.642Z,101703.77
2023-01-22T10:47:07.689Z,101707.27
2023-01-22T10:48:13.420Z,101706.44
2023-01-22T10:49:20.852Z,101704.64
2023-01-22T10:50:23.370Z,101703.81
2023-01-22T10:51:29.388Z,101706.41
2023-01-22T10:52:38.333Z,101711.64
2023-01-22T10:53:47.259Z,101709.87
2023-01-22T10:54:56.305Z,101718.59
2023-01-22T10:56:01.969Z,101712.48
2023-01-22T11:02:55.176Z,101715.14
2023-01-22T11:04:23.249Z,101711.64
2023-01-22T11:05:37.086Z,101714.28
2023-01-22T11:06:43.355Z,101712.50
2023-01-22T11:07:56.567Z,101707.28
2023-01-22T11:09:20.166Z,101714.28
2023-01-22T11:10:46.034Z,101711.66
2023-01-22T11:12:02.623Z,101709.06
2023-01-22T11:14:32.751Z,101716.92
2023-01-22T11:17:30.296Z,101719.50
2023-01-22T11:18:44.190Z,101713.43
2023-01-22T11:20:10.883Z,101723.02
2023-01-22T11:21:35.123Z,101713.45
2023-01-22T11:22:41.081Z,101716.05
2023-01-22T11:23:47.691Z,101716.05
2023-01-22T11:24:49.944Z,101714.30
2023-01-22T11:27:24.065Z,101719.59
2023-01-22T11:28:48.135Z,101718.69
2023-01-22T11:30:10.908Z,101711.67
2023-01-22T11:31:26.086Z,101721.20
2023-01-22T11:32:50.509Z,101712.52
2023-01-22T11:34:13.846Z,101705.53
2023-01-22T11:35:45.660Z,101717.72
2023-01-22T11:37:11.943Z,101717.74
2023-01-22T11:38:37.385Z,101731.61
2023-01-22T11:40:01.388Z,101724.66
2023-01-22T11:41:28.468Z,101718.56
2023-01-22T11:42:55.301Z,101728.15
2023-01-22T11:44:17.919Z,101724.66
2023-01-22T11:45:46.943Z,101723.78
2023-01-22T11:47:05.330Z,101718.55
2023-01-22T11:48:31.570Z,101725.52
2023-01-22T11:50:03.250Z,101729.86
2023-01-22T11:51:27.301Z,101721.17
2023-01-22T11:53:00.255Z,101724.64
2023-01-22T11:54:39.648Z,101729.00
2023-01-22T11:56:08.195Z,101736.83
2023-01-22T11:57:28.850Z,101736.83
2023-01-22T11:58:40.801Z,101729.86
2023-01-22T12:00:15.881Z,101734.22
2023-01-22T12:01:27.563Z,101728.11
2023-01-22T12:02:40.642Z,101738.55
2023-01-22T12:04:09.921Z,101729.86
2023-01-22T12:05:31.334Z,101734.22
2023-01-22T12:07:03.272Z,101738.57
2023-01-22T12:08:30.415Z,101743.78
2023-01-22T12:09:51.699Z,101728.14
2023-01-22T12:12:48.508Z,101735.16
2023-01-22T12:13:59.858Z,101744.69
2023-01-22T12:15:11.601Z,101742.07
2023-01-22T12:16:24.214Z,101742.92
2023-01-22T12:17:49.994Z,101744.66
2023-01-22T12:19:21.367Z,101742.05
2023-01-22T12:22:10.732Z,101737.77
2023-01-22T12:23:16.970Z,101735.97
2023-01-22T12:24:41.028Z,101747.27
2023-01-22T12:25:49.918Z,101738.55
2023-01-22T12:28:16.704Z,101736.86
2023-01-22T12:29:31.530Z,101738.49
2023-01-22T12:30:55.818Z,101748.09
2023-01-22T12:32:04.592Z,101749.82
2023-01-22T12:33:10.441Z,101750.65
2023-01-22T12:34:18.932Z,101746.34
2023-01-22T12:35:24.181Z,101742.89
2023-01-22T12:36:28.700Z,101748.94
2023-01-22T12:38:49.026Z,101753.37
2023-01-22T12:40:11.586Z,101757.67
2023-01-22T12:41:43.176Z,101762.81
2023-01-22T12:42:56.515Z,101755.86
2023-01-22T12:44:02.872Z,101760.19
2023-01-22T12:45:21.971Z,101761.05
2023-01-22T12:46:30.941Z,101762.76
2023-01-22T12:47:39.965Z,101758.43
2023-01-22T12:48:54.789Z,101758.42
2023-01-22T12:49:56.969Z,101759.34
2023-01-22T12:50:59.033Z,101760.19
2023-01-22T12:52:01.065Z,101758.42
2023-01-22T12:53:06.147Z,101760.13
2023-01-22T12:54:30.308Z,101760.16
2023-01-22T12:55:35.249Z,101755.80
2023-01-22T12:56:37.996Z,101762.79
2023-01-22T12:57:41.392Z,101763.64
2023-01-22T12:58:48.053Z,101770.53
2023-01-22T12:59:55.368Z,101771.45
2023-01-22T13:01:07.387Z,101768.84
2023-01-22T13:02:31.829Z,101760.98
2023-01-22T13:03:34.789Z,101766.17
2023-01-22T13:04:37.139Z,101774.91
2023-01-22T13:05:41.568Z,101767.90
2023-01-22T13:06:43.930Z,101774.80
2023-01-22T13:07:47.360Z,101779.18
2023-01-22T13:08:49.323Z,101779.19
2023-01-22T13:10:22.157Z,101777.49
2023-01-22T13:11:36.748Z,101778.31
2023-01-22T13:12:46.446Z,101780.92
2023-01-22T13:13:52.121Z,101774.82
2023-01-22T13:14:54.635Z,101781.77
2023-01-22T13:16:03.734Z,101778.31
2023-01-22T13:18:34.877Z,101775.70
2023-01-22T13:19:39.805Z,101781.69
2023-01-22T13:20:52.087Z,101779.95
2023-01-22T13:22:00.146Z,101779.03
2023-01-22T13:23:07.161Z,101788.66
2023-01-22T13:24:13.204Z,101787.78
2023-01-22T13:25:27.321Z,101791.21
2023-01-22T13:26:33.235Z,101785.13
2023-01-22T13:27:36.789Z,101781.66
2023-01-22T13:28:39.203Z,101790.36
2023-01-22T13:29:41.196Z,101784.23
2023-01-22T13:30:44.229Z,101786.86
2023-01-22T13:31:55.982Z,101793.88
2023-01-22T13:33:05.774Z,101792.98
2023-01-22T13:34:11.548Z,101786.00
2023-01-22T13:35:15.132Z,101797.35
2023-01-22T13:36:17.935Z,101798.19
2023-01-22T13:37:25.503Z,101799.00
2023-01-22T13:38:29.876Z,101791.17
2023-01-22T13:39:33.129Z,101790.36
2023-01-22T13:40:50.539Z,101795.58
2023-01-22T13:41:42.392Z,101801.64
2023-01-22T13:42:45.999Z,101791.17
2023-01-22T13:43:48.730Z,101798.97
2023-01-22T13:44:53.312Z,101797.26
2023-01-22T13:45:57.267Z,101799.00
2023-01-22T13:46:59.998Z,101797.27
2023-01-22T13:48:04.053Z,101795.48
2023-01-22T13:49:22.490Z,101795.48
2023-01-22T13:50:28.828Z,101795.50
2023-01-22T13:51:34.516Z,101800.70
2023-01-22T13:52:36.845Z,101799.83
2023-01-22T13:53:42.580Z,101795.48
2023-01-22T13:54:56.943Z,101792.80
2023-01-22T13:56:00.448Z,101801.48
2023-01-22T13:57:02.788Z,101803.25
2023-01-22T13:58:04.954Z,101807.61
2023-01-22T13:59:20.633Z,101804.89
2023-01-22T14:00:31.857Z,101809.22
2023-01-22T14:01:36.066Z,101805.74
2023-01-22T14:02:41.831Z,101810.04
2023-01-22T14:03:44.107Z,101805.70
2023-01-22T14:04:47.218Z,101808.37
2023-01-22T14:05:50.363Z,101813.50
2023-01-22T14:06:53.194Z,101809.16
2023-01-22T14:08:07.290Z,101817.84
2023-01-22T14:09:09.216Z,101809.11
2023-01-22T14:10:19.710Z,101814.38
2023-01-22T14:11:23.028Z,101815.22
2023-01-22T14:12:26.530Z,101820.42
2023-01-22T14:13:32.356Z,101826.39
2023-01-22T14:14:39.826Z,101812.42
2023-01-22T14:15:44.051Z,101823.01
2023-01-22T14:16:46.561Z,101832.53
2023-01-22T14:17:50.662Z,101828.98
2023-01-22T14:18:52.749Z,101836.84
2023-01-22T14:19:56.047Z,101836.80
2023-01-22T14:20:58.362Z,101827.13
2023-01-22T14:22:00.518Z,101834.14
2023-01-22T14:23:02.392Z,101838.42
2023-01-22T14:24:08.403Z,101839.25
2023-01-22T14:25:10.360Z,101847.07
2023-01-22T14:26:13.988Z,101841.09
2023-01-22T14:27:16.027Z,101848.92
2023-01-22T14:28:19.140Z,101841.86
2023-01-22T14:29:21.035Z,101854.09
2023-01-22T14:30:22.999Z,101844.55
2023-01-22T14:31:24.898Z,101842.70
2023-01-22T14:32:27.126Z,101844.47
2023-01-22T14:33:31.979Z,101843.58
2023-01-22T14:34:33.897Z,101844.48
2023-01-22T14:35:36.326Z,101847.94
2023-01-22T14:36:38.625Z,101847.94
2023-01-22T14:37:41.816Z,101850.56
2023-01-22T14:38:43.728Z,101849.73
2023-01-22T14:39:45.596Z,101848.04
2023-01-22T14:40:48.257Z,101848.88
2023-01-22T14:41:50.233Z,101853.13
2023-01-22T14:42:52.324Z,101850.56
2023-01-22T14:43:54.335Z,101860.95
2023-01-22T14:44:56.300Z,101856.61
2023-01-22T14:45:58.572Z,101854.00
2023-01-22T14:47:00.835Z,101854.00
2023-01-22T14:48:03.035Z,101852.24
2023-01-22T14:49:05.607Z,101852.27
2023-01-22T14:50:12.159Z,101854.83
2023-01-22T14:51:14.256Z,101860.89
2023-01-22T14:52:16.214Z,101861.72
2023-01-22T14:53:18.593Z,101858.29
2023-01-22T14:54:21.411Z,101864.33
2023-01-22T14:55:24.918Z,101873.01
2023-01-22T14:56:27.220Z,101861.78
2023-01-22T14:57:29.223Z,101869.56
2023-01-22T14:58:31.209Z,101871.34
2023-01-22T14:59:33.489Z,101873.75
2023-01-22T15:00:36.707Z,101867.77
2023-01-22T15:01:38.585Z,101878.13
2023-01-22T15:02:40.988Z,101875.70
2023-01-22T15:03:43.859Z,101881.61
2023-01-22T15:04:46.907Z,101875.52
2023-01-22T15:05:52.215Z,101880.85
2023-01-22T15:06:54.721Z,101876.49
2023-01-22T15:07:56.919Z,101877.47
2023-01-22T15:08:59.504Z,101880.85
2023-01-22T15:10:03.565Z,101878.17
2023-01-22T15:11:06.367Z,101885.94
2023-01-22T15:12:08.595Z,101881.52
2023-01-22T15:13:10.477Z,101881.56
2023-01-22T15:14:12.477Z,101879.85
2023-01-22T15:15:17.085Z,101887.58
2023-01-22T15:16:19.279Z,101889.41
2023-01-22T15:17:21.345Z,101882.45
2023-01-22T15:18:23.343Z,101878.84
2023-01-22T15:19:26.009Z,101885.72
2023-01-22T15:20:29.776Z,101883.14
2023-01-22T15:21:31.920Z,101877.05
2023-01-22T15:22:33.784Z,101883.12
2023-01-22T15:23:35.983Z,101876.08
2023-01-22T15:24:38.816Z,101880.49
2023-01-22T15:25:40.707Z,101884.92
2023-01-22T15:26:42.936Z,101872.53
2023-01-22T15:27:44.822Z,101889.09
2023-01-22T15:28:46.982Z,101883.89
2023-01-22T15:29:49.736Z,101886.49
2023-01-22T15:30:52.249Z,101880.44
2023-01-22T15:31:54.153Z,101883.05
2023-01-22T15:32:57.001Z,101892.66
2023-01-22T15:33:58.985Z,101886.49
2023-01-22T15:35:01.623Z,101888.23
2023-01-22T15:36:04.817Z,101889.85
2023-01-22T15:37:06.753Z,101893.32
2023-01-22T15:38:08.659Z,101895.13
2023-01-22T15:39:10.672Z,101889.88
2023-01-22T15:40:14.198Z,101887.17
2023-01-22T15:42:37.928Z,101890.89
2023-01-22T15:43:39.790Z,101891.48
2023-01-22T15:44:41.692Z,101896.65
2023-01-22T15:45:43.631Z,101887.07
2023-01-22T15:46:46.414Z,101889.67
2023-01-22T15:47:48.479Z,101888.01
2023-01-22T15:48:51.453Z,101892.38
2023-01-22T15:49:53.357Z,101891.52
2023-01-22T15:50:59.296Z,101889.75
2023-01-22T15:52:01.991Z,101890.59
2023-01-22T15:53:04.343Z,101888.94
2023-01-22T15:54:09.149Z,101893.27
2023-01-22T15:55:11.159Z,101893.22
2023-01-22T15:56:13.293Z,101891.59
2023-01-22T15:57:15.361Z,101895.98
2023-01-22T15:58:17.250Z,101896.85
2023-01-22T19:52:16.095Z,102017.75
2023-01-22T19:53:17.982Z,102016.63
2023-01-22T19:54:20.195Z,102020.85
2023-01-22T19:55:22.766Z,102017.46
2023-01-22T19:56:30.186Z,102015.73
2023-01-22T19:57:32.372Z,102028.00
2023-01-22T19:58:34.242Z,102018.44
2023-01-22T19:59:36.130Z,102015.00
2023-01-22T20:00:38.152Z,102015.80
2023-01-22T20:01:43.898Z,102015.05
2023-01-22T20:02:45.959Z,102019.38
2023-01-22T20:03:48.553Z,102010.78
2023-01-22T20:04:50.547Z,102012.41
2023-01-22T20:05:52.437Z,102011.58
2023-01-22T20:07:00.155Z,102014.17
2023-01-22T20:08:02.084Z,102012.48
2023-01-22T20:09:04.455Z,102017.61
2023-01-22T20:10:07.582Z,102013.52
2023-01-22T20:11:11.022Z,102014.28
2023-01-22T20:12:12.933Z,102013.52
2023-01-22T20:13:14.937Z,102019.55
2023-01-22T20:14:16.813Z,102021.22
2023-01-22T20:15:19.211Z,102017.82
2023-01-22T20:16:25.538Z,102015.98
2023-01-22T20:17:27.586Z,102019.55
2023-01-22T20:18:29.943Z,102013.45
2023-01-22T20:19:32.466Z,102018.72
2023-01-22T20:20:35.358Z,102008.42
2023-01-22T20:21:37.432Z,102017.06
2023-01-22T20:22:39.342Z,102012.72
2023-01-22T20:23:41.254Z,102017.89
2023-01-22T20:24:43.119Z,102021.25
2023-01-22T20:25:45.428Z,102021.11
2023-01-22T20:26:50.906Z,102015.00
2023-01-22T20:27:52.919Z,102015.84
2023-01-22T20:28:55.730Z,102012.41
2023-01-22T20:29:59.541Z,102015.84
2023-01-22T20:31:04.784Z,102020.27
2023-01-22T20:32:07.164Z,102016.67
2023-01-22T20:33:13.862Z,102016.77
2023-01-22T20:34:15.794Z,102021.97
2023-01-22T20:35:17.887Z,102023.78
2023-01-22T20:36:22.150Z,102028.91
2023-01-22T20:37:24.923Z,102015.84
2023-01-22T20:38:27.659Z,102022.80
2023-01-22T20:39:30.175Z,102021.94
2023-01-22T20:40:32.394Z,102026.27
2023-01-22T20:41:36.174Z,102017.64
2023-01-22T20:42:38.183Z,102028.98
2023-01-22T20:43:44.477Z,102022.16
2023-01-22T20:44:46.682Z,102020.48
2023-01-22T20:47:16.364Z,102022.53
2023-01-22T20:48:18.349Z,102032.70
2023-01-22T20:49:20.372Z,102030.20
2023-01-22T20:50:22.770Z,102041.39
2023-01-22T20:51:27.506Z,102029.41
2023-01-22T20:52:31.261Z,102036.09
2023-01-22T20:53:33.230Z,102033.70
2023-01-22T20:54:42.864Z,102034.25
2023-01-22T20:55:41.337Z,101959.88
2023-01-22T20:56:44.489Z,102035.16
2023-01-22T20:57:46.522Z,102030.02
2023-01-22T20:58:57.407Z,102036.92
2023-01-22T20:59:59.560Z,102038.62
2023-01-22T21:01:08.319Z,102036.02
2023-01-22T21:02:12.086Z,102032.55
2023-01-22T21:03:14.175Z,102029.95
2023-01-22T21:04:17.099Z,102033.63
2023-01-22T21:05:19.395Z,102037.89
2023-01-22T21:06:21.844Z,102034.43